createdAt,value
2018-12-03T00:00:20.883Z,12.90
2018-12-03T00:02:50.376Z,13.00
2018-12-03T00:05:18.833Z,13.00
2018-12-03T00:07:47.243Z,13.00
2018-12-03T00:10:15.695Z,13.00
2018-12-03T00:12:44.128Z,12.90
2018-12-03T00:15:12.577Z,12.90
2018-12-03T00:17:41.090Z,12.90
2018-12-03T00:20:10.404Z,12.90
2018-12-03T00:22:38.844Z,12.90
2018-12-03T00:25:08.012Z,12.90
2018-12-03T00:27:36.396Z,12.90
2018-12-03T00:30:08.796Z,12.90
2018-12-03T00:32:37.231Z,12.90
2018-12-03T00:35:07.453Z,12.90
2018-12-03T00:37:35.865Z,12.90
2018-12-03T00:40:05.203Z,12.90
2018-12-03T00:42:33.617Z,12.90
2018-12-03T00:45:01.970Z,12.90
2018-12-03T00:47:30.344Z,12.90
2018-12-03T00:49:58.705Z,12.90
2018-12-03T00:52:27.092Z,12.90
2018-12-03T00:54:55.529Z,12.90
2018-12-03T00:57:23.903Z,12.90
2018-12-03T00:59:52.280Z,12.90
2018-12-03T01:02:24.715Z,12.90
2018-12-03T01:04:53.452Z,12.90
2018-12-03T01:07:21.979Z,12.90
2018-12-03T01:09:50.352Z,12.90
2018-12-03T01:12:18.777Z,12.90
2018-12-03T01:14:47.167Z,12.90
2018-12-03T01:17:15.556Z,12.90
2018-12-03T01:19:43.977Z,12.90
2018-12-03T01:22:12.369Z,12.90
2018-12-03T01:24:41.047Z,12.90
2018-12-03T01:27:09.468Z,12.90
2018-12-03T01:29:37.960Z,12.90
2018-12-03T01:32:06.309Z,12.90
2018-12-03T01:34:34.685Z,12.90
2018-12-03T01:37:03.083Z,12.80
2018-12-03T01:39:31.415Z,12.80
2018-12-03T01:41:59.797Z,12.90
2018-12-03T01:44:28.957Z,12.90
2018-12-03T01:46:57.337Z,12.90
2018-12-03T01:49:25.855Z,12.90
2018-12-03T01:51:54.329Z,12.90
2018-12-03T01:54:22.684Z,12.90
2018-12-03T01:56:51.123Z,12.90
2018-12-03T01:59:19.457Z,12.90
2018-12-03T02:01:47.824Z,12.90
2018-12-03T02:04:16.344Z,12.90
2018-12-03T02:06:44.756Z,12.90
2018-12-03T02:09:13.143Z,12.80
2018-12-03T02:11:41.536Z,12.90
2018-12-03T02:14:09.931Z,12.90
2018-12-03T02:16:38.303Z,12.90
2018-12-03T02:19:06.736Z,12.80
2018-12-03T02:21:35.095Z,12.90
2018-12-03T02:24:03.544Z,12.90
2018-12-03T02:26:31.943Z,13.00
2018-12-03T02:29:00.290Z,13.00
2018-12-03T02:31:28.678Z,13.00
2018-12-03T02:33:57.044Z,13.00
2018-12-03T02:36:25.430Z,12.90
2018-12-03T02:38:53.880Z,12.90
2018-12-03T02:41:22.472Z,12.90
2018-12-03T02:43:50.857Z,12.90
2018-12-03T02:46:19.220Z,13.00
2018-12-03T02:48:47.620Z,13.00
2018-12-03T02:51:16.127Z,13.00
2018-12-03T02:53:44.489Z,13.00
2018-12-03T02:56:12.874Z,13.00
2018-12-03T02:58:41.220Z,13.00
2018-12-03T03:01:09.635Z,13.00
2018-12-03T03:03:38.039Z,13.00
2018-12-03T03:06:06.449Z,13.00
2018-12-03T03:08:34.837Z,13.00
2018-12-03T03:11:03.836Z,13.00
2018-12-03T03:13:32.218Z,13.00
2018-12-03T03:16:00.570Z,13.00
2018-12-03T03:18:28.932Z,13.00
2018-12-03T03:20:58.311Z,12.90
2018-12-03T03:23:26.704Z,12.90
2018-12-03T03:25:55.071Z,13.00
2018-12-03T03:28:23.463Z,13.00
2018-12-03T03:30:51.907Z,13.00
2018-12-03T03:33:20.378Z,12.90
2018-12-03T03:35:48.752Z,12.90
2018-12-03T03:38:17.112Z,12.90
2018-12-03T03:40:45.543Z,12.80
2018-12-03T03:43:13.937Z,12.80
2018-12-03T03:45:42.333Z,12.80
2018-12-03T03:48:10.771Z,12.80
2018-12-03T03:50:39.169Z,12.80
2018-12-03T03:53:07.678Z,12.80
2018-12-03T03:55:36.049Z,12.80
2018-12-03T03:58:04.464Z,12.80
2018-12-03T04:00:32.876Z,12.80
2018-12-03T04:03:01.247Z,12.90
2018-12-03T04:05:29.689Z,12.90
2018-12-03T04:07:58.721Z,13.00
2018-12-03T04:10:27.170Z,12.90
2018-12-03T04:12:55.490Z,12.90
2018-12-03T04:15:23.898Z,13.00
2018-12-03T04:17:52.268Z,12.90
2018-12-03T04:20:21.214Z,13.00
2018-12-03T04:22:52.022Z,13.00
2018-12-03T04:25:20.357Z,13.00
2018-12-03T04:27:48.745Z,13.00
2018-12-03T04:30:20.058Z,12.90
2018-12-03T04:32:48.415Z,12.90
2018-12-03T04:35:16.876Z,12.90
2018-12-03T04:37:45.297Z,12.90
2018-12-03T04:40:14.893Z,12.90
2018-12-03T04:42:43.423Z,12.80
2018-12-03T04:45:13.913Z,12.80
2018-12-03T04:47:42.285Z,12.80
2018-12-03T04:50:26.173Z,12.80
2018-12-03T04:52:54.524Z,12.80
2018-12-03T04:55:22.918Z,12.70
2018-12-03T04:57:51.368Z,12.70
2018-12-03T05:00:20.487Z,12.60
2018-12-03T05:02:50.270Z,12.60
2018-12-03T05:05:18.647Z,12.50
2018-12-03T05:07:47.023Z,12.50
2018-12-03T05:10:17.118Z,12.50
2018-12-03T05:12:46.855Z,12.50
2018-12-03T05:15:15.390Z,12.50
2018-12-03T05:17:43.956Z,12.50
2018-12-03T05:20:14.554Z,12.50
2018-12-03T05:22:44.149Z,12.50
2018-12-03T05:25:11.560Z,12.50
2018-12-03T05:27:39.975Z,12.50
2018-12-03T05:30:10.656Z,12.50
2018-12-03T05:32:39.452Z,12.60
2018-12-03T05:35:09.556Z,12.50
2018-12-03T05:37:37.976Z,12.50
2018-12-03T05:40:24.712Z,12.50
2018-12-03T05:42:53.167Z,12.50
2018-12-03T05:45:21.512Z,12.50
2018-12-03T05:47:49.984Z,12.50
2018-12-03T05:50:18.375Z,12.60
2018-12-03T05:52:47.694Z,12.50
2018-12-03T05:55:16.212Z,12.50
2018-12-03T05:57:45.152Z,12.50
2018-12-03T06:00:17.451Z,12.40
2018-12-03T06:02:45.867Z,12.50
2018-12-03T06:05:14.896Z,12.50
2018-12-03T06:07:43.332Z,12.50
2018-12-03T06:10:19.470Z,12.50
2018-12-03T06:12:47.868Z,12.40
2018-12-03T06:15:17.320Z,12.50
2018-12-03T06:17:46.280Z,12.40
2018-12-03T06:20:17.699Z,12.40
2018-12-03T06:22:46.759Z,12.40
2018-12-03T06:25:19.515Z,12.40
2018-12-03T06:27:47.872Z,12.50
2018-12-03T06:30:20.827Z,12.40
2018-12-03T06:32:49.204Z,12.40
2018-12-03T06:35:18.028Z,12.40
2018-12-03T06:37:46.549Z,12.40
2018-12-03T06:40:22.041Z,12.40
2018-12-03T06:42:50.585Z,12.40
2018-12-03T06:45:19.984Z,12.40
2018-12-03T06:48:22.600Z,12.40
2018-12-03T06:50:51.115Z,12.40
2018-12-03T06:53:19.484Z,12.40
2018-12-03T06:55:48.010Z,12.40
2018-12-03T06:58:16.709Z,12.30
2018-12-03T07:00:46.993Z,12.30
2018-12-03T07:03:15.491Z,12.30
2018-12-03T07:05:44.828Z,12.30
2018-12-03T07:08:13.280Z,12.30
2018-12-03T07:10:48.755Z,12.20
2018-12-03T07:13:19.404Z,12.20
2018-12-03T07:15:50.832Z,12.30
2018-12-03T07:18:19.223Z,12.30
2018-12-03T07:20:47.819Z,12.20
2018-12-03T07:23:16.217Z,12.20
2018-12-03T07:25:44.652Z,12.20
2018-12-03T07:28:13.031Z,12.20
2018-12-03T07:30:41.489Z,12.20
2018-12-03T07:33:09.888Z,12.20
2018-12-03T07:35:38.375Z,12.10
2018-12-03T07:38:07.308Z,12.10
2018-12-03T07:40:35.784Z,12.00
2018-12-03T07:43:04.241Z,12.00
2018-12-03T07:45:32.683Z,11.90
2018-12-03T07:48:01.120Z,11.90
2018-12-03T07:50:29.576Z,11.90
2018-12-03T07:52:58.015Z,11.80
2018-12-03T07:55:26.983Z,11.90
2018-12-03T07:58:01.032Z,11.80
2018-12-03T08:00:33.288Z,11.80
2018-12-03T08:03:01.647Z,11.80
2018-12-03T08:05:30.040Z,11.80
2018-12-03T08:07:58.563Z,11.90
2018-12-03T08:10:26.956Z,11.80
2018-12-03T08:12:55.379Z,11.80
2018-12-03T08:15:23.764Z,11.90
2018-12-03T08:17:57.916Z,12.00
2018-12-03T08:20:30.882Z,12.00
2018-12-03T08:23:02.909Z,12.00
2018-12-03T08:25:31.490Z,12.10
2018-12-03T08:27:59.861Z,12.10
2018-12-03T08:30:28.232Z,12.10
2018-12-03T08:32:56.621Z,12.00
2018-12-03T08:35:25.019Z,12.00
2018-12-03T08:37:53.492Z,12.00
2018-12-03T08:40:22.445Z,12.00
2018-12-03T08:42:53.078Z,12.00
2018-12-03T08:45:22.441Z,11.90
2018-12-03T08:47:51.355Z,11.90
2018-12-03T08:50:24.163Z,11.90
2018-12-03T08:52:52.798Z,11.90
2018-12-03T08:55:21.222Z,11.80
2018-12-03T08:57:49.756Z,11.80
2018-12-03T09:00:23.683Z,11.80
2018-12-03T09:02:57.931Z,11.80
2018-12-03T09:05:28.972Z,11.90
2018-12-03T09:07:57.359Z,11.90
2018-12-03T09:10:25.763Z,11.90
2018-12-03T09:12:55.461Z,12.00
2018-12-03T09:15:23.983Z,12.00
2018-12-03T09:17:52.374Z,12.10
2018-12-03T09:20:20.735Z,12.30
2018-12-03T09:22:49.151Z,12.40
2018-12-03T09:25:24.411Z,12.50
2018-12-03T09:27:52.813Z,12.60
2018-12-03T09:30:21.273Z,12.70
2018-12-03T09:32:49.720Z,12.70
2018-12-03T09:35:18.120Z,12.80
2018-12-03T09:37:46.524Z,12.70
2018-12-03T09:40:16.663Z,12.60
2018-12-03T09:42:45.059Z,12.50
2018-12-03T09:45:14.613Z,12.40
2018-12-03T09:47:43.028Z,12.40
2018-12-03T09:50:19.583Z,12.40
2018-12-03T09:52:48.548Z,12.30
2018-12-03T09:55:20.538Z,12.30
2018-12-03T09:58:14.247Z,12.30
2018-12-03T10:00:43.311Z,12.30
2018-12-03T10:03:23.517Z,12.20
2018-12-03T10:05:57.370Z,12.20
2018-12-03T10:08:30.105Z,12.20
2018-12-03T10:11:00.182Z,12.10
2018-12-03T10:13:29.455Z,12.20
2018-12-03T10:15:57.912Z,12.20
2018-12-03T10:18:26.305Z,12.30
2018-12-03T10:20:56.415Z,12.60
2018-12-03T10:23:25.384Z,12.90
2018-12-03T10:25:55.388Z,13.00
2018-12-03T10:28:24.142Z,13.00
2018-12-03T10:30:53.967Z,13.10
2018-12-03T10:33:25.734Z,13.30
2018-12-03T10:35:54.125Z,13.20
2018-12-03T10:38:26.200Z,13.00
2018-12-03T10:41:04.619Z,12.80
2018-12-03T10:43:33.017Z,12.80
2018-12-03T10:46:01.435Z,12.60
2018-12-03T10:48:29.846Z,12.60
2018-12-03T10:50:58.215Z,12.60
2018-12-03T10:53:28.636Z,12.50
2018-12-03T10:55:57.015Z,12.50
2018-12-03T10:58:25.484Z,12.50
2018-12-03T11:01:04.287Z,12.50
2018-12-03T11:03:37.987Z,12.50
2018-12-03T11:06:12.556Z,12.40
2018-12-03T11:08:41.097Z,12.40
2018-12-03T11:11:09.540Z,12.40
2018-12-03T11:13:37.943Z,12.30
2018-12-03T11:16:08.790Z,12.30
2018-12-03T11:18:41.969Z,12.30
2018-12-03T11:21:10.408Z,12.20
2018-12-03T11:23:38.872Z,12.20
2018-12-03T11:26:07.792Z,12.20
2018-12-03T11:28:39.355Z,12.20
2018-12-03T11:31:09.593Z,12.20
2018-12-03T11:33:37.924Z,12.30
2018-12-03T11:36:06.868Z,12.30
2018-12-03T11:38:44.844Z,12.40
2018-12-03T11:41:13.283Z,12.50
2018-12-03T11:43:41.664Z,12.40
2018-12-03T11:46:10.056Z,12.40
2018-12-03T11:48:38.465Z,12.30
2018-12-03T11:51:06.916Z,12.30
2018-12-03T11:53:35.272Z,12.30
2018-12-03T11:56:03.671Z,12.30
2018-12-03T11:58:32.057Z,12.30
2018-12-03T12:01:00.422Z,12.30
2018-12-03T12:03:28.836Z,12.20
2018-12-03T12:05:57.217Z,12.30
2018-12-03T12:08:25.663Z,12.30
2018-12-03T12:10:54.201Z,12.30
2018-12-03T12:13:22.592Z,12.30
2018-12-03T12:15:51.030Z,12.30
2018-12-03T12:18:19.436Z,12.30
2018-12-03T12:20:47.872Z,12.40
2018-12-03T12:23:16.266Z,12.40
2018-12-03T12:25:44.779Z,12.40
2018-12-03T12:28:13.161Z,12.50
2018-12-03T12:30:41.515Z,12.60
2018-12-03T12:33:09.896Z,12.60
2018-12-03T12:35:38.700Z,12.60
2018-12-03T12:38:07.160Z,12.60
2018-12-03T12:40:35.548Z,12.50
2018-12-03T12:43:04.951Z,12.50
2018-12-03T12:45:44.759Z,12.50
2018-12-03T12:48:13.376Z,12.50
2018-12-03T12:50:41.752Z,12.50
2018-12-03T12:53:10.140Z,12.50
2018-12-03T12:55:38.499Z,12.50
2018-12-03T12:58:06.936Z,12.50
2018-12-03T13:00:35.451Z,12.50
2018-12-03T13:03:03.803Z,12.50
2018-12-03T13:05:32.211Z,12.50
2018-12-03T13:08:00.603Z,12.40
2018-12-03T13:10:28.988Z,12.40
2018-12-03T13:12:57.461Z,12.30
2018-12-03T13:15:25.940Z,12.30
2018-12-03T13:17:54.412Z,12.20
2018-12-03T13:20:22.770Z,12.20
2018-12-03T13:22:51.175Z,12.20
2018-12-03T13:25:21.028Z,12.10
2018-12-03T13:27:50.695Z,12.10
2018-12-03T13:30:19.070Z,12.10
2018-12-03T13:32:47.658Z,12.00
2018-12-03T13:35:16.084Z,12.10
2018-12-03T13:37:44.578Z,12.10
2018-12-03T13:40:14.402Z,12.20
2018-12-03T13:42:42.836Z,12.20
2018-12-03T13:45:17.448Z,12.30
2018-12-03T13:47:45.923Z,12.30
2018-12-03T13:50:15.551Z,12.30
2018-12-03T13:52:44.376Z,12.30
2018-12-03T13:55:17.242Z,12.40
2018-12-03T13:57:45.684Z,12.40
2018-12-03T14:00:15.468Z,12.40
2018-12-03T14:02:45.820Z,12.50
2018-12-03T14:05:15.411Z,12.50
2018-12-03T14:07:48.856Z,12.50
2018-12-03T14:10:32.265Z,12.50
2018-12-03T14:13:12.456Z,12.60
2018-12-03T14:15:52.860Z,12.60
2018-12-03T14:18:25.784Z,12.60
2018-12-03T14:20:57.269Z,12.60
2018-12-03T14:23:29.710Z,12.60
2018-12-03T14:25:58.076Z,12.60
2018-12-03T14:28:26.496Z,12.50
2018-12-03T14:30:54.916Z,12.50
2018-12-03T14:33:23.304Z,12.50
2018-12-03T14:35:51.711Z,12.50
2018-12-03T14:38:20.148Z,12.40
2018-12-03T14:40:49.196Z,12.40
2018-12-03T14:43:17.628Z,12.40
2018-12-03T14:45:46.072Z,12.50
2018-12-03T14:48:14.462Z,12.40
2018-12-03T14:50:42.864Z,12.50
2018-12-03T14:53:11.276Z,12.40
2018-12-03T14:55:39.729Z,12.40
2018-12-03T14:58:08.187Z,12.40
2018-12-03T15:00:36.620Z,12.30
2018-12-03T15:03:05.072Z,12.30
2018-12-03T15:05:33.489Z,12.30
2018-12-03T15:08:01.977Z,12.30
2018-12-03T15:10:30.417Z,12.30
2018-12-03T15:12:58.852Z,12.20
2018-12-03T15:15:27.238Z,12.20
2018-12-03T15:17:55.764Z,12.10
2018-12-03T15:20:24.452Z,12.10
2018-12-03T15:22:52.867Z,12.10
2018-12-03T15:25:21.248Z,12.10
2018-12-03T15:27:49.668Z,12.00
2018-12-03T15:30:18.206Z,12.00
2018-12-03T15:32:46.835Z,12.00
2018-12-03T15:35:15.181Z,12.00
2018-12-03T15:37:43.712Z,12.00
2018-12-03T15:40:14.692Z,12.00
2018-12-03T15:42:43.115Z,12.10
2018-12-03T15:45:13.460Z,12.10
2018-12-03T15:47:42.464Z,12.10
2018-12-03T15:50:10.888Z,12.10
2018-12-03T15:52:39.238Z,12.10
2018-12-03T15:55:08.368Z,12.20
2018-12-03T15:57:36.942Z,12.20
2018-12-03T16:00:09.066Z,12.10
2018-12-03T16:02:37.490Z,12.10
2018-12-03T16:05:08.684Z,12.10
2018-12-03T16:07:38.853Z,12.10
2018-12-03T16:10:10.538Z,12.20
2018-12-03T16:12:39.048Z,12.20
2018-12-03T16:15:08.492Z,12.20
2018-12-03T16:17:36.888Z,12.20
2018-12-03T16:20:07.386Z,12.20
2018-12-03T16:22:35.861Z,12.20
2018-12-03T16:25:04.523Z,12.20
2018-12-03T16:27:32.918Z,12.10
2018-12-03T16:30:01.417Z,12.20
2018-12-03T16:32:29.790Z,12.10
2018-12-03T16:34:58.183Z,12.10
2018-12-03T16:37:26.673Z,12.10
2018-12-03T16:39:55.780Z,12.10
2018-12-03T16:42:24.243Z,12.10
2018-12-03T16:44:54.462Z,12.10
2018-12-03T16:47:23.553Z,12.20
2018-12-03T16:49:52.044Z,12.20
2018-12-03T16:52:20.584Z,12.20
2018-12-03T16:54:49.058Z,12.20
2018-12-03T16:57:17.608Z,12.20
2018-12-03T16:59:46.011Z,12.20
2018-12-03T17:02:14.515Z,12.20
2018-12-03T17:04:42.987Z,12.20
2018-12-03T17:07:14.034Z,12.20
2018-12-03T17:09:39.891Z,12.20
2018-12-03T17:12:08.364Z,12.20
2018-12-03T17:14:36.779Z,12.20
2018-12-03T17:17:05.179Z,12.10
2018-12-03T17:19:33.529Z,12.10
2018-12-03T17:22:18.143Z,12.10
2018-12-03T17:24:47.597Z,12.10
2018-12-03T17:27:16.048Z,12.10
2018-12-03T17:29:45.273Z,12.10
2018-12-03T17:32:13.635Z,12.10
2018-12-03T17:34:42.000Z,12.10
2018-12-03T17:37:10.556Z,12.00
2018-12-03T17:39:39.395Z,12.00
2018-12-03T17:42:07.807Z,12.00
2018-12-03T17:44:45.388Z,11.90
2018-12-03T17:47:13.748Z,11.90
2018-12-03T17:49:42.112Z,11.90
2018-12-03T17:52:10.512Z,11.90
2018-12-03T17:54:38.907Z,11.90
2018-12-03T17:57:07.285Z,11.90
2018-12-03T17:59:35.684Z,11.90
2018-12-03T18:02:04.121Z,11.90
2018-12-03T18:04:33.179Z,11.90
2018-12-03T18:07:01.621Z,11.90
2018-12-03T18:09:30.036Z,11.90
2018-12-03T18:11:58.452Z,11.80
2018-12-03T18:14:26.875Z,11.80
2018-12-03T18:16:55.231Z,11.80
2018-12-03T18:19:23.702Z,11.80
2018-12-03T18:21:52.192Z,11.70
2018-12-03T18:24:20.693Z,11.70
2018-12-03T18:26:49.135Z,11.80
2018-12-03T18:29:17.555Z,11.80
2018-12-03T18:31:45.920Z,11.80
2018-12-03T18:34:14.395Z,11.70
2018-12-03T18:36:42.769Z,11.70
2018-12-03T18:39:11.164Z,11.80
2018-12-03T18:41:39.543Z,11.70
2018-12-03T18:44:07.924Z,11.70
2018-12-03T18:47:12.532Z,11.70
2018-12-03T18:49:40.059Z,11.70
2018-12-03T18:52:07.600Z,11.70
2018-12-03T18:54:35.097Z,11.70
2018-12-03T18:57:02.606Z,11.70
2018-12-03T18:59:30.600Z,11.70
2018-12-03T19:01:58.091Z,11.70
2018-12-03T19:04:25.604Z,11.70
2018-12-03T19:06:53.247Z,11.60
2018-12-03T19:09:20.742Z,11.60
2018-12-03T19:11:48.293Z,11.60
2018-12-03T19:14:25.678Z,11.60
2018-12-03T19:16:53.230Z,11.60
2018-12-03T19:19:20.738Z,11.60
2018-12-03T19:21:48.224Z,11.60
2018-12-03T19:24:15.785Z,11.60
2018-12-03T19:26:43.352Z,11.50
2018-12-03T19:29:10.840Z,11.50
2018-12-03T19:31:38.657Z,11.40
2018-12-03T19:34:06.153Z,11.40
2018-12-03T19:36:33.693Z,11.40
2018-12-03T19:39:01.213Z,11.40
2018-12-03T19:41:28.739Z,11.40
2018-12-03T19:43:56.250Z,11.40
2018-12-03T19:46:23.756Z,11.40
2018-12-03T19:48:51.307Z,11.40
2018-12-03T19:51:18.916Z,11.40
2018-12-03T19:53:46.505Z,11.40
2018-12-03T19:56:14.031Z,11.40
2018-12-03T19:58:41.743Z,11.40
2018-12-03T20:01:09.308Z,11.40
2018-12-03T20:03:36.800Z,11.40
2018-12-03T20:06:04.380Z,11.40
2018-12-03T20:08:31.886Z,11.50
2018-12-03T20:10:59.405Z,11.50
2018-12-03T20:13:26.924Z,11.50
2018-12-03T20:15:54.451Z,11.40
2018-12-03T20:18:21.956Z,11.50
2018-12-03T20:20:49.443Z,11.50
2018-12-03T20:23:16.996Z,11.40
2018-12-03T20:25:45.376Z,11.50
2018-12-03T20:28:13.739Z,11.40
2018-12-03T20:30:42.311Z,11.50
2018-12-03T20:33:09.880Z,11.40
2018-12-03T20:35:37.378Z,11.40
2018-12-03T20:38:04.934Z,11.40
2018-12-03T20:40:32.500Z,11.40
2018-12-03T20:43:00.885Z,11.40
2018-12-03T20:45:34.891Z,11.40
2018-12-03T20:48:03.927Z,11.40
2018-12-03T20:50:31.423Z,11.40
2018-12-03T20:52:58.976Z,11.40
2018-12-03T20:55:26.592Z,11.40
2018-12-03T20:57:54.109Z,11.40
2018-12-03T21:00:21.626Z,11.40
2018-12-03T21:02:49.127Z,11.40
2018-12-03T21:05:16.631Z,11.30
2018-12-03T21:07:44.249Z,11.40
2018-12-03T21:10:11.743Z,11.30
2018-12-03T21:12:39.252Z,11.40
2018-12-03T21:15:06.787Z,11.40
2018-12-03T21:17:34.281Z,11.30
2018-12-03T21:20:02.386Z,11.40
2018-12-03T21:22:29.895Z,11.30
2018-12-03T21:24:57.384Z,11.20
2018-12-03T21:27:24.879Z,11.20
2018-12-03T21:29:52.402Z,11.20
2018-12-03T21:32:20.378Z,11.20
2018-12-03T21:34:47.864Z,11.10
2018-12-03T21:37:15.411Z,11.20
2018-12-03T21:39:47.901Z,11.10
2018-12-03T21:42:12.428Z,11.10
2018-12-03T21:44:39.962Z,11.10
2018-12-03T21:47:07.451Z,11.10
2018-12-03T21:49:34.947Z,11.10
2018-12-03T21:52:02.531Z,11.00
2018-12-03T21:54:30.018Z,11.00
2018-12-03T21:56:57.528Z,11.00
2018-12-03T21:59:25.120Z,11.00
2018-12-03T22:01:52.635Z,10.90
2018-12-03T22:04:20.127Z,10.80
2018-12-03T22:06:47.653Z,10.80
2018-12-03T22:09:15.263Z,10.80
2018-12-03T22:11:42.758Z,10.60
2018-12-03T22:14:10.276Z,10.60
2018-12-03T22:16:37.835Z,10.50
2018-12-03T22:19:05.321Z,10.40
2018-12-03T22:21:32.986Z,10.40
2018-12-03T22:24:00.488Z,10.40
2018-12-03T22:26:27.972Z,10.30
2018-12-03T22:28:55.552Z,10.30
2018-12-03T22:31:23.035Z,10.20
2018-12-03T22:33:50.543Z,10.10
2018-12-03T22:36:18.076Z,10.10
2018-12-03T22:38:45.556Z,10.10
2018-12-03T22:41:13.036Z,10.10
2018-12-03T22:43:40.573Z,10.00
2018-12-03T22:46:08.052Z,10.00
2018-12-03T22:48:35.538Z,9.90
2018-12-03T22:51:03.049Z,9.90
2018-12-03T22:53:30.544Z,9.80
2018-12-03T22:55:58.052Z,9.80
2018-12-03T22:58:25.587Z,9.80
2018-12-03T23:00:56.405Z,9.80
2018-12-03T23:03:23.891Z,9.70
2018-12-03T23:05:51.423Z,9.80
2018-12-03T23:08:18.909Z,9.70
2018-12-03T23:10:46.883Z,9.70
2018-12-03T23:13:14.392Z,9.70
2018-12-03T23:15:41.880Z,9.60
2018-12-03T23:18:09.360Z,9.60
2018-12-03T23:20:36.918Z,9.60
2018-12-03T23:23:04.404Z,9.60
2018-12-03T23:25:31.883Z,9.60
2018-12-03T23:27:59.390Z,9.60
2018-12-03T23:30:26.900Z,9.60
2018-12-03T23:32:54.452Z,9.60
2018-12-03T23:35:21.932Z,9.60
2018-12-03T23:37:49.420Z,9.60
2018-12-03T23:40:17.012Z,9.50
2018-12-03T23:42:44.491Z,9.60
2018-12-03T23:45:12.031Z,9.50
2018-12-03T23:47:40.218Z,9.50
2018-12-03T23:50:07.763Z,9.50
2018-12-03T23:52:35.291Z,9.50
2018-12-03T23:55:02.829Z,9.50
2018-12-03T23:57:30.318Z,9.40
2018-12-03T23:59:58.671Z,9.40
